sensor_id;sensor_type;location;lat;lon;timestamp;P1;durP1;ratioP1;P2;durP2;ratioP2
40537;SDS011;27925;41.874;12.526;2023-04-16T00:00:38;14.80;;;2.97;;
40537;SDS011;27925;41.874;12.526;2023-04-16T00:03:04;13.98;;;2.20;;
40537;SDS011;27925;41.874;12.526;2023-04-16T00:05:30;17.08;;;2.65;;
40537;SDS011;27925;41.874;12.526;2023-04-16T00:07:56;8.40;;;1.77;;
40537;SDS011;27925;41.874;12.526;2023-04-16T00:10:21;12.48;;;1.98;;
40537;SDS011;27925;41.874;12.526;2023-04-16T00:12:47;12.77;;;2.00;;
40537;SDS011;27925;41.874;12.526;2023-04-16T00:15:13;7.05;;;1.20;;
40537;SDS011;27925;41.874;12.526;2023-04-16T00:17:39;13.80;;;1.92;;
40537;SDS011;27925;41.874;12.526;2023-04-16T00:20:05;9.80;;;1.90;;
40537;SDS011;27925;41.874;12.526;2023-04-16T00:22:32;9.57;;;2.00;;
40537;SDS011;27925;41.874;12.526;2023-04-16T00:24:58;10.38;;;1.60;;
40537;SDS011;27925;41.874;12.526;2023-04-16T00:27:24;11.73;;;1.70;;
40537;SDS011;27925;41.874;12.526;2023-04-16T00:29:49;9.88;;;1.67;;
40537;SDS011;27925;41.874;12.526;2023-04-16T00:32:15;9.20;;;1.30;;
40537;SDS011;27925;41.874;12.526;2023-04-16T00:34:41;7.05;;;1.63;;
40537;SDS011;27925;41.874;12.526;2023-04-16T00:37:06;5.28;;;1.15;;
40537;SDS011;27925;41.874;12.526;2023-04-16T00:39:32;4.55;;;1.60;;
40537;SDS011;27925;41.874;12.526;2023-04-16T00:41:58;9.45;;;1.85;;
40537;SDS011;27925;41.874;12.526;2023-04-16T00:44:23;11.73;;;1.83;;
40537;SDS011;27925;41.874;12.526;2023-04-16T00:46:49;6.13;;;1.60;;
40537;SDS011;27925;41.874;12.526;2023-04-16T00:49:15;7.88;;;2.08;;
40537;SDS011;27925;41.874;12.526;2023-04-16T00:51:41;9.32;;;1.80;;
40537;SDS011;27925;41.874;12.526;2023-04-16T00:54:06;8.30;;;1.40;;
40537;SDS011;27925;41.874;12.526;2023-04-16T00:56:33;8.93;;;1.67;;
40537;SDS011;27925;41.874;12.526;2023-04-16T00:59:00;6.45;;;1.58;;
40537;SDS011;27925;41.874;12.526;2023-04-16T01:01:26;6.80;;;1.48;;
40537;SDS011;27925;41.874;12.526;2023-04-16T01:03:52;5.15;;;1.10;;
40537;SDS011;27925;41.874;12.526;2023-04-16T01:06:18;5.95;;;1.48;;
40537;SDS011;27925;41.874;12.526;2023-04-16T01:08:45;3.78;;;1.40;;
40537;SDS011;27925;41.874;12.526;2023-04-16T01:11:12;5.75;;;1.27;;
40537;SDS011;27925;41.874;12.526;2023-04-16T01:13:39;6.82;;;1.58;;
40537;SDS011;27925;41.874;12.526;2023-04-16T01:16:08;4.85;;;1.58;;
40537;SDS011;27925;41.874;12.526;2023-04-16T01:18:35;7.40;;;1.98;;
40537;SDS011;27925;41.874;12.526;2023-04-16T01:21:02;8.15;;;1.73;;
40537;SDS011;27925;41.874;12.526;2023-04-16T01:23:28;8.00;;;1.73;;
40537;SDS011;27925;41.874;12.526;2023-04-16T01:25:54;5.30;;;1.40;;
40537;SDS011;27925;41.874;12.526;2023-04-16T01:28:19;8.93;;;1.70;;
40537;SDS011;27925;41.874;12.526;2023-04-16T01:30:45;9.73;;;2.00;;
40537;SDS011;27925;41.874;12.526;2023-04-16T01:33:11;5.57;;;1.80;;
40537;SDS011;27925;41.874;12.526;2023-04-16T01:35:38;8.02;;;1.50;;
40537;SDS011;27925;41.874;12.526;2023-04-16T01:38:05;8.18;;;1.80;;
40537;SDS011;27925;41.874;12.526;2023-04-16T01:40:32;6.25;;;1.52;;
40537;SDS011;27925;41.874;12.526;2023-04-16T01:43:02;5.28;;;1.50;;
40537;SDS011;27925;41.874;12.526;2023-04-16T01:45:29;7.07;;;1.75;;
40537;SDS011;27925;41.874;12.526;2023-04-16T01:47:56;8.50;;;1.90;;
40537;SDS011;27925;41.874;12.526;2023-04-16T01:50:22;5.63;;;1.50;;
40537;SDS011;27925;41.874;12.526;2023-04-16T01:52:47;4.70;;;1.40;;
40537;SDS011;27925;41.874;12.526;2023-04-16T01:55:13;4.25;;;1.40;;
40537;SDS011;27925;41.874;12.526;2023-04-16T01:57:39;9.65;;;1.92;;
40537;SDS011;27925;41.874;12.526;2023-04-16T02:00:05;5.63;;;1.73;;
40537;SDS011;27925;41.874;12.526;2023-04-16T02:02:33;6.15;;;1.75;;
40537;SDS011;27925;41.874;12.526;2023-04-16T02:04:59;8.25;;;1.45;;
40537;SDS011;27925;41.874;12.526;2023-04-16T02:07:24;5.95;;;1.20;;
40537;SDS011;27925;41.874;12.526;2023-04-16T02:09:51;7.72;;;1.40;;
40537;SDS011;27925;41.874;12.526;2023-04-16T02:12:17;5.43;;;1.95;;
40537;SDS011;27925;41.874;12.526;2023-04-16T02:14:43;5.32;;;1.40;;
40537;SDS011;27925;41.874;12.526;2023-04-16T02:17:09;7.25;;;1.48;;
40537;SDS011;27925;41.874;12.526;2023-04-16T02:19:35;7.07;;;1.48;;
40537;SDS011;27925;41.874;12.526;2023-04-16T02:22:01;6.50;;;1.58;;
40537;SDS011;27925;41.874;12.526;2023-04-16T02:24:26;6.70;;;2.05;;
40537;SDS011;27925;41.874;12.526;2023-04-16T02:26:52;6.47;;;1.67;;
40537;SDS011;27925;41.874;12.526;2023-04-16T02:29:18;5.32;;;1.60;;
40537;SDS011;27925;41.874;12.526;2023-04-16T02:31:45;8.43;;;1.50;;
40537;SDS011;27925;41.874;12.526;2023-04-16T02:34:11;4.90;;;1.50;;
40537;SDS011;27925;41.874;12.526;2023-04-16T02:36:37;6.32;;;1.50;;
40537;SDS011;27925;41.874;12.526;2023-04-16T02:39:03;5.18;;;1.30;;
40537;SDS011;27925;41.874;12.526;2023-04-16T02:41:29;7.30;;;1.85;;
40537;SDS011;27925;41.874;12.526;2023-04-16T02:43:54;5.22;;;1.48;;
40537;SDS011;27925;41.874;12.526;2023-04-16T02:46:20;5.97;;;1.63;;
40537;SDS011;27925;41.874;12.526;2023-04-16T02:48:46;6.13;;;1.48;;
40537;SDS011;27925;41.874;12.526;2023-04-16T02:51:12;6.05;;;1.67;;
40537;SDS011;27925;41.874;12.526;2023-04-16T02:53:37;5.82;;;1.80;;
40537;SDS011;27925;41.874;12.526;2023-04-16T02:56:03;8.43;;;1.90;;
40537;SDS011;27925;41.874;12.526;2023-04-16T02:58:29;8.98;;;1.60;;
40537;SDS011;27925;41.874;12.526;2023-04-16T03:00:55;7.68;;;1.60;;
40537;SDS011;27925;41.874;12.526;2023-04-16T03:03:21;6.28;;;1.98;;
40537;SDS011;27925;41.874;12.526;2023-04-16T03:05:47;8.07;;;1.70;;
40537;SDS011;27925;41.874;12.526;2023-04-16T03:08:13;6.55;;;1.63;;
40537;SDS011;27925;41.874;12.526;2023-04-16T03:10:38;4.55;;;1.27;;
40537;SDS011;27925;41.874;12.526;2023-04-16T03:13:05;6.22;;;1.40;;
40537;SDS011;27925;41.874;12.526;2023-04-16T03:15:31;5.78;;;1.60;;
40537;SDS011;27925;41.874;12.526;2023-04-16T03:17:57;4.82;;;1.50;;
40537;SDS011;27925;41.874;12.526;2023-04-16T03:20:23;4.97;;;1.30;;
40537;SDS011;27925;41.874;12.526;2023-04-16T03:22:49;5.60;;;1.52;;
40537;SDS011;27925;41.874;12.526;2023-04-16T03:25:16;3.90;;;1.20;;
40537;SDS011;27925;41.874;12.526;2023-04-16T03:27:42;4.88;;;1.30;;
40537;SDS011;27925;41.874;12.526;2023-04-16T03:30:11;7.03;;;1.27;;
40537;SDS011;27925;41.874;12.526;2023-04-16T03:32:37;3.90;;;1.33;;
40537;SDS011;27925;41.874;12.526;2023-04-16T03:35:04;4.03;;;1.30;;
40537;SDS011;27925;41.874;12.526;2023-04-16T03:37:31;5.03;;;1.20;;
40537;SDS011;27925;41.874;12.526;2023-04-16T03:39:57;4.45;;;1.10;;
40537;SDS011;27925;41.874;12.526;2023-04-16T03:42:23;3.63;;;1.40;;
40537;SDS011;27925;41.874;12.526;2023-04-16T03:44:49;2.90;;;1.00;;
40537;SDS011;27925;41.874;12.526;2023-04-16T03:47:15;3.75;;;1.08;;
40537;SDS011;27925;41.874;12.526;2023-04-16T03:49:40;5.40;;;0.98;;
40537;SDS011;27925;41.874;12.526;2023-04-16T03:52:06;2.95;;;1.27;;
40537;SDS011;27925;41.874;12.526;2023-04-16T03:54:32;2.70;;;1.10;;
40537;SDS011;27925;41.874;12.526;2023-04-16T03:56:57;4.55;;;1.00;;
40537;SDS011;27925;41.874;12.526;2023-04-16T03:59:23;3.63;;;1.25;;
40537;SDS011;27925;41.874;12.526;2023-04-16T04:01:49;3.65;;;1.13;;
40537;SDS011;27925;41.874;12.526;2023-04-16T04:04:14;2.45;;;1.10;;
40537;SDS011;27925;41.874;12.526;2023-04-16T04:06:41;4.25;;;1.10;;
40537;SDS011;27925;41.874;12.526;2023-04-16T04:09:06;4.47;;;1.30;;
40537;SDS011;27925;41.874;12.526;2023-04-16T04:11:32;5.15;;;1.30;;
40537;SDS011;27925;41.874;12.526;2023-04-16T04:13:58;2.83;;;1.10;;
40537;SDS011;27925;41.874;12.526;2023-04-16T04:16:24;2.88;;;1.13;;
40537;SDS011;27925;41.874;12.526;2023-04-16T04:18:49;4.32;;;1.08;;
40537;SDS011;27925;41.874;12.526;2023-04-16T04:21:15;4.43;;;1.30;;
40537;SDS011;27925;41.874;12.526;2023-04-16T04:23:41;4.15;;;1.40;;
40537;SDS011;27925;41.874;12.526;2023-04-16T04:26:07;6.72;;;1.25;;
40537;SDS011;27925;41.874;12.526;2023-04-16T04:28:33;4.07;;;1.20;;
40537;SDS011;27925;41.874;12.526;2023-04-16T04:31:00;4.53;;;1.50;;
40537;SDS011;27925;41.874;12.526;2023-04-16T04:33:26;4.43;;;1.30;;
40537;SDS011;27925;41.874;12.526;2023-04-16T04:35:52;5.80;;;1.10;;
40537;SDS011;27925;41.874;12.526;2023-04-16T04:38:18;5.70;;;1.52;;
40537;SDS011;27925;41.874;12.526;2023-04-16T04:40:46;2.45;;;1.15;;
40537;SDS011;27925;41.874;12.526;2023-04-16T04:43:12;3.35;;;1.27;;
40537;SDS011;27925;41.874;12.526;2023-04-16T04:45:38;3.47;;;1.30;;
40537;SDS011;27925;41.874;12.526;2023-04-16T04:48:04;2.70;;;1.10;;
40537;SDS011;27925;41.874;12.526;2023-04-16T04:50:30;2.78;;;1.15;;
40537;SDS011;27925;41.874;12.526;2023-04-16T04:52:56;4.45;;;1.27;;
40537;SDS011;27925;41.874;12.526;2023-04-16T04:55:22;2.92;;;1.10;;
40537;SDS011;27925;41.874;12.526;2023-04-16T04:57:47;3.00;;;1.10;;
40537;SDS011;27925;41.874;12.526;2023-04-16T05:00:14;4.68;;;1.23;;
40537;SDS011;27925;41.874;12.526;2023-04-16T05:02:40;3.38;;;1.10;;
40537;SDS011;27925;41.874;12.526;2023-04-16T05:05:06;4.80;;;1.38;;
40537;SDS011;27925;41.874;12.526;2023-04-16T05:07:32;4.30;;;1.20;;
40537;SDS011;27925;41.874;12.526;2023-04-16T05:09:57;5.72;;;1.20;;
40537;SDS011;27925;41.874;12.526;2023-04-16T05:12:23;7.93;;;1.52;;
40537;SDS011;27925;41.874;12.526;2023-04-16T05:14:48;2.55;;;0.90;;
40537;SDS011;27925;41.874;12.526;2023-04-16T05:17:14;2.92;;;0.75;;
40537;SDS011;27925;41.874;12.526;2023-04-16T05:19:40;5.88;;;1.40;;
40537;SDS011;27925;41.874;12.526;2023-04-16T05:22:06;2.60;;;1.02;;
40537;SDS011;27925;41.874;12.526;2023-04-16T05:24:32;3.45;;;1.20;;
40537;SDS011;27925;41.874;12.526;2023-04-16T05:26:57;3.40;;;1.00;;
40537;SDS011;27925;41.874;12.526;2023-04-16T05:29:23;2.40;;;0.90;;
40537;SDS011;27925;41.874;12.526;2023-04-16T05:31:49;3.72;;;1.02;;
40537;SDS011;27925;41.874;12.526;2023-04-16T05:34:14;2.85;;;1.00;;
40537;SDS011;27925;41.874;12.526;2023-04-16T05:36:40;4.40;;;1.33;;
40537;SDS011;27925;41.874;12.526;2023-04-16T05:39:06;2.60;;;0.90;;
40537;SDS011;27925;41.874;12.526;2023-04-16T05:41:32;4.05;;;1.10;;
40537;SDS011;27925;41.874;12.526;2023-04-16T05:43:58;4.22;;;1.00;;
40537;SDS011;27925;41.874;12.526;2023-04-16T05:46:24;2.30;;;0.82;;
40537;SDS011;27925;41.874;12.526;2023-04-16T05:48:50;5.00;;;1.20;;
40537;SDS011;27925;41.874;12.526;2023-04-16T05:51:15;3.08;;;1.08;;
40537;SDS011;27925;41.874;12.526;2023-04-16T05:53:41;2.50;;;1.00;;
40537;SDS011;27925;41.874;12.526;2023-04-16T05:56:07;5.68;;;1.27;;
40537;SDS011;27925;41.874;12.526;2023-04-16T05:58:33;2.60;;;0.90;;
40537;SDS011;27925;41.874;12.526;2023-04-16T06:00:59;5.15;;;1.17;;
40537;SDS011;27925;41.874;12.526;2023-04-16T06:03:25;3.92;;;1.00;;
40537;SDS011;27925;41.874;12.526;2023-04-16T06:05:51;2.33;;;0.90;;
40537;SDS011;27925;41.874;12.526;2023-04-16T06:08:17;2.67;;;1.00;;
40537;SDS011;27925;41.874;12.526;2023-04-16T06:10:44;2.90;;;1.10;;
40537;SDS011;27925;41.874;12.526;2023-04-16T06:13:11;4.45;;;1.20;;
40537;SDS011;27925;41.874;12.526;2023-04-16T06:15:36;3.53;;;0.95;;
40537;SDS011;27925;41.874;12.526;2023-04-16T06:18:02;3.40;;;0.98;;
40537;SDS011;27925;41.874;12.526;2023-04-16T06:20:28;3.30;;;1.17;;
40537;SDS011;27925;41.874;12.526;2023-04-16T06:22:54;2.58;;;1.08;;
40537;SDS011;27925;41.874;12.526;2023-04-16T06:25:20;2.85;;;1.10;;
40537;SDS011;27925;41.874;12.526;2023-04-16T06:27:46;3.85;;;1.20;;
40537;SDS011;27925;41.874;12.526;2023-04-16T06:30:12;3.45;;;1.02;;
40537;SDS011;27925;41.874;12.526;2023-04-16T06:32:38;2.92;;;1.10;;
40537;SDS011;27925;41.874;12.526;2023-04-16T06:35:04;2.50;;;1.00;;
40537;SDS011;27925;41.874;12.526;2023-04-16T06:37:30;2.45;;;1.00;;
40537;SDS011;27925;41.874;12.526;2023-04-16T06:39:56;2.20;;;0.95;;
40537;SDS011;27925;41.874;12.526;2023-04-16T06:42:22;3.60;;;1.30;;
40537;SDS011;27925;41.874;12.526;2023-04-16T06:44:47;3.80;;;1.05;;
40537;SDS011;27925;41.874;12.526;2023-04-16T06:47:13;4.57;;;1.15;;
40537;SDS011;27925;41.874;12.526;2023-04-16T06:49:40;3.38;;;1.10;;
40537;SDS011;27925;41.874;12.526;2023-04-16T06:52:05;3.30;;;1.10;;
40537;SDS011;27925;41.874;12.526;2023-04-16T06:54:31;3.60;;;1.10;;
40537;SDS011;27925;41.874;12.526;2023-04-16T06:56:57;2.10;;;1.20;;
40537;SDS011;27925;41.874;12.526;2023-04-16T06:59:23;3.97;;;1.10;;
40537;SDS011;27925;41.874;12.526;2023-04-16T07:01:48;2.95;;;1.00;;
40537;SDS011;27925;41.874;12.526;2023-04-16T07:04:15;4.88;;;0.90;;
40537;SDS011;27925;41.874;12.526;2023-04-16T07:06:41;3.78;;;1.08;;
40537;SDS011;27925;41.874;12.526;2023-04-16T07:09:06;3.55;;;1.20;;
40537;SDS011;27925;41.874;12.526;2023-04-16T07:11:32;1.98;;;0.90;;
40537;SDS011;27925;41.874;12.526;2023-04-16T07:13:58;2.80;;;0.80;;
40537;SDS011;27925;41.874;12.526;2023-04-16T07:16:24;3.20;;;1.00;;
40537;SDS011;27925;41.874;12.526;2023-04-16T07:18:49;3.78;;;1.13;;
40537;SDS011;27925;41.874;12.526;2023-04-16T07:21:15;2.05;;;1.00;;
40537;SDS011;27925;41.874;12.526;2023-04-16T07:23:41;1.85;;;0.80;;
40537;SDS011;27925;41.874;12.526;2023-04-16T07:26:06;3.65;;;1.30;;
40537;SDS011;27925;41.874;12.526;2023-04-16T07:28:32;4.45;;;1.10;;
40537;SDS011;27925;41.874;12.526;2023-04-16T07:30:58;3.40;;;1.20;;
40537;SDS011;27925;41.874;12.526;2023-04-16T07:33:24;3.35;;;1.10;;
40537;SDS011;27925;41.874;12.526;2023-04-16T07:35:50;3.78;;;1.00;;
40537;SDS011;27925;41.874;12.526;2023-04-16T07:38:15;3.45;;;1.00;;
40537;SDS011;27925;41.874;12.526;2023-04-16T07:40:41;4.20;;;1.77;;
40537;SDS011;27925;41.874;12.526;2023-04-16T07:43:07;3.65;;;1.40;;
40537;SDS011;27925;41.874;12.526;2023-04-16T07:45:33;2.70;;;1.15;;
40537;SDS011;27925;41.874;12.526;2023-04-16T07:47:58;6.18;;;1.10;;
40537;SDS011;27925;41.874;12.526;2023-04-16T07:50:24;4.93;;;0.93;;
40537;SDS011;27925;41.874;12.526;2023-04-16T07:52:50;2.65;;;1.10;;
40537;SDS011;27925;41.874;12.526;2023-04-16T07:55:15;1.77;;;0.80;;
40537;SDS011;27925;41.874;12.526;2023-04-16T07:57:41;3.97;;;0.90;;
40537;SDS011;27925;41.874;12.526;2023-04-16T08:00:07;4.68;;;1.38;;
40537;SDS011;27925;41.874;12.526;2023-04-16T08:02:35;2.80;;;1.10;;
40537;SDS011;27925;41.874;12.526;2023-04-16T08:05:01;2.88;;;1.13;;
40537;SDS011;27925;41.874;12.526;2023-04-16T08:07:26;3.22;;;1.02;;
40537;SDS011;27925;41.874;12.526;2023-04-16T08:09:52;1.17;;;0.70;;
40537;SDS011;27925;41.874;12.526;2023-04-16T08:12:18;2.60;;;0.90;;
40537;SDS011;27925;41.874;12.526;2023-04-16T08:14:45;1.55;;;0.70;;
40537;SDS011;27925;41.874;12.526;2023-04-16T08:17:11;2.50;;;0.90;;
40537;SDS011;27925;41.874;12.526;2023-04-16T08:19:37;1.45;;;0.70;;
40537;SDS011;27925;41.874;12.526;2023-04-16T08:22:03;2.22;;;1.15;;
40537;SDS011;27925;41.874;12.526;2023-04-16T08:24:30;2.42;;;0.73;;
40537;SDS011;27925;41.874;12.526;2023-04-16T08:26:55;1.40;;;0.98;;
40537;SDS011;27925;41.874;12.526;2023-04-16T08:29:21;1.33;;;0.60;;
40537;SDS011;27925;41.874;12.526;2023-04-16T08:31:50;1.25;;;0.70;;
40537;SDS011;27925;41.874;12.526;2023-04-16T08:34:16;3.30;;;0.93;;
40537;SDS011;27925;41.874;12.526;2023-04-16T08:36:42;1.70;;;0.90;;
40537;SDS011;27925;41.874;12.526;2023-04-16T08:39:08;3.35;;;1.73;;
40537;SDS011;27925;41.874;12.526;2023-04-16T08:41:34;3.47;;;1.88;;
40537;SDS011;27925;41.874;12.526;2023-04-16T08:44:04;3.58;;;1.20;;
40537;SDS011;27925;41.874;12.526;2023-04-16T08:46:33;2.03;;;0.90;;
40537;SDS011;27925;41.874;12.526;2023-04-16T08:49:01;2.05;;;1.08;;
40537;SDS011;27925;41.874;12.526;2023-04-16T08:51:35;1.92;;;0.90;;
40537;SDS011;27925;41.874;12.526;2023-04-16T08:54:02;0.80;;;0.50;;
40537;SDS011;27925;41.874;12.526;2023-04-16T08:56:30;1.30;;;0.60;;
40537;SDS011;27925;41.874;12.526;2023-04-16T08:58:56;3.30;;;0.90;;
40537;SDS011;27925;41.874;12.526;2023-04-16T09:01:29;1.85;;;1.00;;
40537;SDS011;27925;41.874;12.526;2023-04-16T09:03:59;1.42;;;0.60;;
40537;SDS011;27925;41.874;12.526;2023-04-16T09:06:29;2.72;;;0.73;;
40537;SDS011;27925;41.874;12.526;2023-04-16T09:08:55;2.17;;;1.10;;
40537;SDS011;27925;41.874;12.526;2023-04-16T09:11:23;3.25;;;1.13;;
40537;SDS011;27925;41.874;12.526;2023-04-16T09:13:49;2.53;;;0.98;;
40537;SDS011;27925;41.874;12.526;2023-04-16T09:16:16;1.30;;;0.50;;
40537;SDS011;27925;41.874;12.526;2023-04-16T09:18:44;3.47;;;0.65;;
40537;SDS011;27925;41.874;12.526;2023-04-16T09:21:11;2.25;;;0.80;;
40537;SDS011;27925;41.874;12.526;2023-04-16T09:23:37;1.85;;;0.85;;
40537;SDS011;27925;41.874;12.526;2023-04-16T09:26:04;3.10;;;0.80;;
40537;SDS011;27925;41.874;12.526;2023-04-16T09:28:45;1.63;;;0.70;;
40537;SDS011;27925;41.874;12.526;2023-04-16T09:31:12;2.40;;;0.60;;
40537;SDS011;27925;41.874;12.526;2023-04-16T09:33:39;3.35;;;0.70;;
40537;SDS011;27925;41.874;12.526;2023-04-16T09:36:05;5.25;;;0.73;;
40537;SDS011;27925;41.874;12.526;2023-04-16T09:38:47;1.40;;;0.93;;
40537;SDS011;27925;41.874;12.526;2023-04-16T09:41:16;1.38;;;0.90;;
40537;SDS011;27925;41.874;12.526;2023-04-16T09:43:58;1.88;;;0.70;;
40537;SDS011;27925;41.874;12.526;2023-04-16T09:46:34;2.55;;;0.88;;
40537;SDS011;27925;41.874;12.526;2023-04-16T09:49:04;2.30;;;1.02;;
40537;SDS011;27925;41.874;12.526;2023-04-16T09:51:36;3.10;;;0.87;;
40537;SDS011;27925;41.874;12.526;2023-04-16T09:54:05;1.95;;;0.75;;
40537;SDS011;27925;41.874;12.526;2023-04-16T09:56:31;1.10;;;0.57;;
40537;SDS011;27925;41.874;12.526;2023-04-16T09:59:00;1.38;;;0.70;;
40537;SDS011;27925;41.874;12.526;2023-04-16T10:01:26;2.90;;;0.90;;
40537;SDS011;27925;41.874;12.526;2023-04-16T10:03:54;1.42;;;0.65;;
40537;SDS011;27925;41.874;12.526;2023-04-16T10:06:21;2.63;;;0.95;;
40537;SDS011;27925;41.874;12.526;2023-04-16T10:08:49;0.98;;;0.63;;
40537;SDS011;27925;41.874;12.526;2023-04-16T10:11:17;1.33;;;0.85;;
40537;SDS011;27925;41.874;12.526;2023-04-16T10:13:44;3.17;;;1.00;;
40537;SDS011;27925;41.874;12.526;2023-04-16T10:16:10;2.00;;;0.80;;
40537;SDS011;27925;41.874;12.526;2023-04-16T10:18:36;1.75;;;0.70;;
40537;SDS011;27925;41.874;12.526;2023-04-16T10:21:04;1.63;;;0.68;;
40537;SDS011;27925;41.874;12.526;2023-04-16T10:23:31;2.78;;;0.80;;
40537;SDS011;27925;41.874;12.526;2023-04-16T10:25:58;1.85;;;0.90;;
40537;SDS011;27925;41.874;12.526;2023-04-16T10:28:25;1.95;;;0.77;;
40537;SDS011;27925;41.874;12.526;2023-04-16T10:30:53;2.13;;;0.70;;
40537;SDS011;27925;41.874;12.526;2023-04-16T10:33:33;1.50;;;0.70;;
40537;SDS011;27925;41.874;12.526;2023-04-16T10:36:10;0.68;;;0.50;;
40537;SDS011;27925;41.874;12.526;2023-04-16T10:38:43;2.45;;;0.80;;
40537;SDS011;27925;41.874;12.526;2023-04-16T10:41:13;1.77;;;0.70;;
40537;SDS011;27925;41.874;12.526;2023-04-16T10:43:41;1.75;;;0.73;;
40537;SDS011;27925;41.874;12.526;2023-04-16T10:46:17;2.05;;;0.70;;
40537;SDS011;27925;41.874;12.526;2023-04-16T10:48:48;1.30;;;0.77;;
40537;SDS011;27925;41.874;12.526;2023-04-16T10:51:29;1.38;;;0.63;;
40537;SDS011;27925;41.874;12.526;2023-04-16T10:56:30;1.45;;;0.70;;
40537;SDS011;27925;41.874;12.526;2023-04-16T10:58:57;1.83;;;0.73;;
40537;SDS011;27925;41.874;12.526;2023-04-16T11:01:33;1.92;;;0.80;;
40537;SDS011;27925;41.874;12.526;2023-04-16T11:04:01;2.97;;;1.00;;
40537;SDS011;27925;41.874;12.526;2023-04-16T20:39:06;3.03;;;1.42;;
40537;SDS011;27925;41.874;12.526;2023-04-16T20:41:33;4.65;;;1.40;;
40537;SDS011;27925;41.874;12.526;2023-04-16T20:43:59;4.25;;;1.67;;
40537;SDS011;27925;41.874;12.526;2023-04-16T20:46:29;2.65;;;1.38;;
40537;SDS011;27925;41.874;12.526;2023-04-16T20:48:57;4.28;;;1.40;;
40537;SDS011;27925;41.874;12.526;2023-04-16T20:51:25;2.67;;;1.38;;
40537;SDS011;27925;41.874;12.526;2023-04-16T20:53:51;2.17;;;1.20;;
40537;SDS011;27925;41.874;12.526;2023-04-16T20:56:17;2.40;;;1.27;;
40537;SDS011;27925;41.874;12.526;2023-04-16T20:58:44;3.50;;;1.48;;
40537;SDS011;27925;41.874;12.526;2023-04-16T21:01:10;2.47;;;1.35;;
40537;SDS011;27925;41.874;12.526;2023-04-16T21:03:36;2.17;;;1.23;;
40537;SDS011;27925;41.874;12.526;2023-04-16T21:06:01;2.58;;;1.50;;
40537;SDS011;27925;41.874;12.526;2023-04-16T21:08:28;2.90;;;1.40;;
40537;SDS011;27925;41.874;12.526;2023-04-16T21:10:53;3.85;;;1.42;;
40537;SDS011;27925;41.874;12.526;2023-04-16T21:13:19;3.15;;;1.20;;
40537;SDS011;27925;41.874;12.526;2023-04-16T21:15:45;1.80;;;1.15;;
40537;SDS011;27925;41.874;12.526;2023-04-16T21:18:11;2.33;;;1.20;;
40537;SDS011;27925;41.874;12.526;2023-04-16T21:20:37;2.80;;;1.30;;
40537;SDS011;27925;41.874;12.526;2023-04-16T21:23:03;4.18;;;1.23;;
40537;SDS011;27925;41.874;12.526;2023-04-16T21:25:29;3.42;;;1.48;;
40537;SDS011;27925;41.874;12.526;2023-04-16T21:27:55;2.13;;;1.20;;
40537;SDS011;27925;41.874;12.526;2023-04-16T21:30:21;3.20;;;1.17;;
40537;SDS011;27925;41.874;12.526;2023-04-16T21:32:47;3.25;;;1.40;;
40537;SDS011;27925;41.874;12.526;2023-04-16T21:35:13;1.40;;;0.88;;
40537;SDS011;27925;41.874;12.526;2023-04-16T21:37:39;2.22;;;1.13;;
40537;SDS011;27925;41.874;12.526;2023-04-16T21:40:05;2.17;;;1.15;;
40537;SDS011;27925;41.874;12.526;2023-04-16T21:42:31;2.05;;;1.10;;
40537;SDS011;27925;41.874;12.526;2023-04-16T21:44:57;4.05;;;1.13;;
40537;SDS011;27925;41.874;12.526;2023-04-16T21:47:23;2.20;;;1.15;;
40537;SDS011;27925;41.874;12.526;2023-04-16T21:49:49;1.55;;;0.90;;
40537;SDS011;27925;41.874;12.526;2023-04-16T21:52:14;1.77;;;1.10;;
40537;SDS011;27925;41.874;12.526;2023-04-16T21:54:46;4.82;;;1.30;;
40537;SDS011;27925;41.874;12.526;2023-04-16T21:57:11;2.20;;;1.13;;
40537;SDS011;27925;41.874;12.526;2023-04-16T21:59:37;2.55;;;1.20;;
40537;SDS011;27925;41.874;12.526;2023-04-16T22:02:04;2.10;;;1.00;;
40537;SDS011;27925;41.874;12.526;2023-04-16T22:04:30;1.38;;;1.00;;
40537;SDS011;27925;41.874;12.526;2023-04-16T22:07:05;3.60;;;1.20;;
40537;SDS011;27925;41.874;12.526;2023-04-16T22:09:35;3.13;;;1.30;;
40537;SDS011;27925;41.874;12.526;2023-04-16T22:12:04;1.65;;;1.10;;
40537;SDS011;27925;41.874;12.526;2023-04-16T22:14:37;1.42;;;0.98;;
40537;SDS011;27925;41.874;12.526;2023-04-16T22:17:03;2.63;;;1.20;;
40537;SDS011;27925;41.874;12.526;2023-04-16T22:19:29;2.17;;;1.30;;
40537;SDS011;27925;41.874;12.526;2023-04-16T22:21:55;1.85;;;0.90;;
40537;SDS011;27925;41.874;12.526;2023-04-16T22:24:23;2.22;;;1.00;;
40537;SDS011;27925;41.874;12.526;2023-04-16T22:26:49;3.47;;;1.35;;
40537;SDS011;27925;41.874;12.526;2023-04-16T22:29:15;2.75;;;0.90;;
40537;SDS011;27925;41.874;12.526;2023-04-16T22:31:40;2.42;;;1.08;;
40537;SDS011;27925;41.874;12.526;2023-04-16T22:34:06;1.48;;;0.93;;
40537;SDS011;27925;41.874;12.526;2023-04-16T22:36:32;3.47;;;1.00;;
40537;SDS011;27925;41.874;12.526;2023-04-16T22:38:58;3.08;;;1.13;;
40537;SDS011;27925;41.874;12.526;2023-04-16T22:41:24;2.33;;;0.90;;
40537;SDS011;27925;41.874;12.526;2023-04-16T22:43:50;1.35;;;0.90;;
40537;SDS011;27925;41.874;12.526;2023-04-16T22:46:15;1.95;;;1.08;;
40537;SDS011;27925;41.874;12.526;2023-04-16T22:48:43;2.28;;;1.10;;
40537;SDS011;27925;41.874;12.526;2023-04-16T22:51:09;1.00;;;0.80;;
40537;SDS011;27925;41.874;12.526;2023-04-16T22:53:35;2.35;;;0.90;;
40537;SDS011;27925;41.874;12.526;2023-04-16T22:56:01;2.60;;;1.30;;
40537;SDS011;27925;41.874;12.526;2023-04-16T22:58:27;2.80;;;1.13;;
40537;SDS011;27925;41.874;12.526;2023-04-16T23:00:52;2.67;;;0.80;;
40537;SDS011;27925;41.874;12.526;2023-04-16T23:03:20;2.58;;;1.00;;
40537;SDS011;27925;41.874;12.526;2023-04-16T23:05:46;1.80;;;1.00;;
40537;SDS011;27925;41.874;12.526;2023-04-16T23:08:12;1.67;;;0.80;;
40537;SDS011;27925;41.874;12.526;2023-04-16T23:10:38;1.73;;;0.82;;
40537;SDS011;27925;41.874;12.526;2023-04-16T23:13:04;2.90;;;1.10;;
40537;SDS011;27925;41.874;12.526;2023-04-16T23:15:29;2.95;;;0.90;;
40537;SDS011;27925;41.874;12.526;2023-04-16T23:17:56;3.10;;;1.08;;
40537;SDS011;27925;41.874;12.526;2023-04-16T23:20:22;2.58;;;0.90;;
40537;SDS011;27925;41.874;12.526;2023-04-16T23:22:47;1.40;;;0.90;;
40537;SDS011;27925;41.874;12.526;2023-04-16T23:25:13;1.83;;;1.00;;
40537;SDS011;27925;41.874;12.526;2023-04-16T23:27:39;2.35;;;1.10;;
40537;SDS011;27925;41.874;12.526;2023-04-16T23:30:05;1.67;;;0.88;;
40537;SDS011;27925;41.874;12.526;2023-04-16T23:32:31;1.98;;;0.82;;
40537;SDS011;27925;41.874;12.526;2023-04-16T23:34:58;1.65;;;0.93;;
40537;SDS011;27925;41.874;12.526;2023-04-16T23:37:24;1.60;;;0.70;;
40537;SDS011;27925;41.874;12.526;2023-04-16T23:39:49;1.25;;;0.80;;
40537;SDS011;27925;41.874;12.526;2023-04-16T23:42:15;1.73;;;0.90;;
40537;SDS011;27925;41.874;12.526;2023-04-16T23:44:41;3.97;;;1.10;;
40537;SDS011;27925;41.874;12.526;2023-04-16T23:47:07;2.78;;;1.00;;
40537;SDS011;27925;41.874;12.526;2023-04-16T23:49:32;1.33;;;0.80;;
40537;SDS011;27925;41.874;12.526;2023-04-16T23:51:58;2.25;;;1.08;;
40537;SDS011;27925;41.874;12.526;2023-04-16T23:54:24;3.10;;;1.17;;
40537;SDS011;27925;41.874;12.526;2023-04-16T23:56:49;4.00;;;0.90;;
40537;SDS011;27925;41.874;12.526;2023-04-16T23:59:15;1.20;;;0.70;;
